createdAt,value
2018-10-01T00:00:12.740Z,63.80
2018-10-01T00:00:45.824Z,64.00
2018-10-01T00:01:18.853Z,64.00
2018-10-01T00:01:51.888Z,63.90
2018-10-01T00:02:24.920Z,63.80
2018-10-01T00:02:57.955Z,63.70
2018-10-01T00:03:31.962Z,63.80
2018-10-01T00:04:04.833Z,63.80
2018-10-01T00:04:38.636Z,64.00
2018-10-01T00:05:11.842Z,64.00
2018-10-01T00:05:44.892Z,64.10
2018-10-01T00:06:17.929Z,65.00
2018-10-01T00:06:50.952Z,64.20
2018-10-01T00:07:24.010Z,64.20
2018-10-01T00:07:57.821Z,64.00
2018-10-01T00:08:30.848Z,64.00
2018-10-01T00:09:03.892Z,64.00
2018-10-01T00:09:36.920Z,64.10
2018-10-01T00:10:10.712Z,64.30
2018-10-01T00:10:43.760Z,64.30
2018-10-01T00:11:16.801Z,64.20
2018-10-01T00:11:49.830Z,64.20
2018-10-01T00:12:22.887Z,64.20
2018-10-01T00:12:55.923Z,64.30
2018-10-01T00:13:28.971Z,64.30
2018-10-01T00:14:02.074Z,64.20
2018-10-01T00:14:35.120Z,64.30
2018-10-01T00:15:08.159Z,63.90
2018-10-01T00:15:41.409Z,64.30
2018-10-01T00:16:14.442Z,64.40
2018-10-01T00:16:47.473Z,64.10
2018-10-01T00:17:20.504Z,63.30
2018-10-01T00:17:53.554Z,63.00
2018-10-01T00:18:26.609Z,62.80
2018-10-01T00:18:59.652Z,63.30
2018-10-01T00:19:32.710Z,63.50
2018-10-01T00:20:05.749Z,63.90
2018-10-01T00:20:56.220Z,63.90
2018-10-01T00:21:46.931Z,64.00
2018-10-01T00:22:25.532Z,63.80
2018-10-01T00:22:58.553Z,64.00
2018-10-01T00:23:31.596Z,63.90
2018-10-01T00:24:04.640Z,63.90
2018-10-01T00:24:37.679Z,63.90
2018-10-01T00:25:10.732Z,64.10
2018-10-01T00:25:43.835Z,64.00
2018-10-01T00:26:16.849Z,64.00
2018-10-01T00:26:50.664Z,63.90
2018-10-01T00:27:23.724Z,63.90
2018-10-01T00:27:56.767Z,64.00
2018-10-01T00:28:29.817Z,64.10
2018-10-01T00:29:03.081Z,64.20
2018-10-01T00:29:36.108Z,64.20
2018-10-01T00:30:09.149Z,64.20
2018-10-01T00:30:42.186Z,64.10
2018-10-01T00:31:16.053Z,63.80
2018-10-01T00:31:49.093Z,63.80
2018-10-01T00:32:22.134Z,64.40
2018-10-01T00:32:55.142Z,64.60
2018-10-01T00:33:28.183Z,64.40
2018-10-01T00:34:01.224Z,64.40
2018-10-01T00:34:34.284Z,64.50
2018-10-01T00:35:07.334Z,64.50
2018-10-01T00:35:40.357Z,64.30
2018-10-01T00:36:13.646Z,64.60
2018-10-01T00:36:46.678Z,64.50
2018-10-01T00:37:19.720Z,64.60
2018-10-01T00:37:52.756Z,64.40
2018-10-01T00:38:25.818Z,64.20
2018-10-01T00:38:58.824Z,64.40
2018-10-01T00:39:31.864Z,64.40
2018-10-01T00:40:04.921Z,64.60
2018-10-01T00:40:37.948Z,64.70
2018-10-01T00:41:10.973Z,64.70
2018-10-01T00:41:44.004Z,64.60
2018-10-01T00:42:17.035Z,64.60
2018-10-01T00:42:50.077Z,64.60
2018-10-01T00:43:23.104Z,64.60
2018-10-01T00:43:56.144Z,64.80
2018-10-01T00:44:29.507Z,64.50
2018-10-01T00:45:02.540Z,64.80
2018-10-01T00:45:36.328Z,65.10
2018-10-01T00:46:10.123Z,65.00
2018-10-01T00:46:43.160Z,65.00
2018-10-01T00:47:16.220Z,64.90
2018-10-01T00:47:49.244Z,65.90
2018-10-01T00:48:22.272Z,65.10
2018-10-01T00:48:55.321Z,64.90
2018-10-01T00:49:28.352Z,65.00
2018-10-01T00:50:01.394Z,65.10
2018-10-01T00:50:34.422Z,65.10
2018-10-01T00:51:08.224Z,65.10
2018-10-01T00:51:42.045Z,65.00
2018-10-01T00:52:15.080Z,65.10
2018-10-01T00:52:48.887Z,65.40
2018-10-01T00:53:21.927Z,65.40
2018-10-01T00:53:54.970Z,65.50
2018-10-01T00:54:27.998Z,64.70
2018-10-01T00:55:01.796Z,65.30
2018-10-01T00:55:35.576Z,65.30
2018-10-01T00:56:09.391Z,66.10
2018-10-01T00:56:42.499Z,65.20
2018-10-01T00:57:15.725Z,65.40
2018-10-01T00:57:48.760Z,65.50
2018-10-01T00:58:22.559Z,64.90
2018-10-01T00:58:55.617Z,65.40
2018-10-01T00:59:28.649Z,65.40
2018-10-01T01:00:01.688Z,66.20
2018-10-01T01:00:35.066Z,65.50
2018-10-01T01:01:08.076Z,65.60
2018-10-01T01:01:41.885Z,65.60
2018-10-01T01:02:14.950Z,65.50
2018-10-01T01:02:48.069Z,65.60
2018-10-01T01:03:21.119Z,65.60
2018-10-01T01:03:54.167Z,65.40
2018-10-01T01:04:27.970Z,65.70
2018-10-01T01:05:01.766Z,65.60
2018-10-01T01:05:35.676Z,65.70
2018-10-01T01:06:08.715Z,65.70
2018-10-01T01:06:41.749Z,65.70
2018-10-01T01:07:14.785Z,65.50
2018-10-01T01:07:47.817Z,65.60
2018-10-01T01:08:20.860Z,65.60
2018-10-01T01:08:53.896Z,65.70
2018-10-01T01:09:27.709Z,65.50
2018-10-01T01:10:00.752Z,65.60
2018-10-01T01:10:33.784Z,65.70
2018-10-01T01:11:06.828Z,65.90
2018-10-01T01:11:39.867Z,65.80
2018-10-01T01:12:12.912Z,65.70
2018-10-01T01:12:45.940Z,65.60
2018-10-01T01:13:18.976Z,65.60
2018-10-01T01:13:51.999Z,65.70
2018-10-01T01:14:25.046Z,65.70
2018-10-01T01:14:58.073Z,66.30
2018-10-01T01:15:31.128Z,65.70
2018-10-01T01:16:04.953Z,65.50
2018-10-01T01:16:38.016Z,65.50
2018-10-01T01:17:11.051Z,65.60
2018-10-01T01:17:44.876Z,65.60
2018-10-01T01:18:17.927Z,65.60
2018-10-01T01:18:50.976Z,65.80
2018-10-01T01:19:24.030Z,65.00
2018-10-01T01:19:57.096Z,65.40
2018-10-01T01:20:30.129Z,65.70
2018-10-01T01:21:03.948Z,65.70
2018-10-01T01:21:36.991Z,65.50
2018-10-01T01:22:10.016Z,65.80
2018-10-01T01:22:43.043Z,65.80
2018-10-01T01:23:16.851Z,65.60
2018-10-01T01:23:49.881Z,65.50
2018-10-01T01:24:22.945Z,65.40
2018-10-01T01:24:55.998Z,65.40
2018-10-01T01:25:29.024Z,65.70
2018-10-01T01:26:02.839Z,65.80
2018-10-01T01:26:35.885Z,65.80
2018-10-01T01:27:09.232Z,65.60
2018-10-01T01:27:42.268Z,65.80
2018-10-01T01:28:15.307Z,65.70
2018-10-01T01:28:48.452Z,65.70
2018-10-01T01:29:21.538Z,65.80
2018-10-01T01:29:54.573Z,65.80
2018-10-01T01:30:28.364Z,65.70
2018-10-01T01:31:01.397Z,65.70
2018-10-01T01:31:34.432Z,65.60
2018-10-01T01:32:07.484Z,65.60
2018-10-01T01:32:40.512Z,65.70
2018-10-01T01:33:13.667Z,65.40
2018-10-01T01:33:46.694Z,65.50
2018-10-01T01:34:20.516Z,65.90
2018-10-01T01:34:53.564Z,65.80
2018-10-01T01:35:27.363Z,65.50
2018-10-01T01:36:01.160Z,65.60
2018-10-01T01:36:34.959Z,65.90
2018-10-01T01:37:07.984Z,65.90
2018-10-01T01:37:41.016Z,65.80
2018-10-01T01:38:14.051Z,65.80
2018-10-01T01:38:47.335Z,65.80
2018-10-01T01:39:20.370Z,65.90
2018-10-01T01:39:53.428Z,65.90
2018-10-01T01:40:26.476Z,65.90
2018-10-01T01:40:59.509Z,66.00
2018-10-01T01:41:32.562Z,65.90
2018-10-01T01:42:05.621Z,66.90
2018-10-01T01:42:38.662Z,66.20
2018-10-01T01:43:12.468Z,66.20
2018-10-01T01:43:46.271Z,66.30
2018-10-01T01:44:19.305Z,66.30
2018-10-01T01:44:52.382Z,66.30
2018-10-01T01:45:25.422Z,66.40
2018-10-01T01:45:58.600Z,66.60
2018-10-01T01:46:31.641Z,66.70
2018-10-01T01:47:04.682Z,66.60
2018-10-01T01:47:37.711Z,66.60
2018-10-01T01:48:10.763Z,66.50
2018-10-01T01:48:43.803Z,66.70
2018-10-01T01:49:16.849Z,66.70
2018-10-01T01:49:49.903Z,66.60
2018-10-01T01:50:22.929Z,66.60
2018-10-01T01:50:55.959Z,66.50
2018-10-01T01:51:28.992Z,66.70
2018-10-01T01:52:02.025Z,66.50
2018-10-01T01:52:35.055Z,66.40
2018-10-01T01:53:08.855Z,66.60
2018-10-01T01:53:41.880Z,66.70
2018-10-01T01:54:14.907Z,66.60
2018-10-01T01:54:47.940Z,66.60
2018-10-01T01:55:20.967Z,66.60
2018-10-01T01:55:54.001Z,67.50
2018-10-01T01:56:27.047Z,66.60
2018-10-01T01:57:00.081Z,66.60
2018-10-01T01:57:33.120Z,66.80
2018-10-01T01:58:06.188Z,66.70
2018-10-01T01:58:39.205Z,67.00
2018-10-01T01:59:12.236Z,67.80
2018-10-01T01:59:45.561Z,66.90
2018-10-01T02:00:19.345Z,67.00
2018-10-01T02:00:53.143Z,67.00
2018-10-01T02:01:26.180Z,67.00
2018-10-01T02:01:59.210Z,67.00
2018-10-01T02:02:32.233Z,67.20
2018-10-01T02:03:05.272Z,67.30
2018-10-01T02:03:38.292Z,67.50
2018-10-01T02:04:11.323Z,67.40
2018-10-01T02:04:44.377Z,67.10
2018-10-01T02:05:17.408Z,67.30
2018-10-01T02:05:50.464Z,67.20
2018-10-01T02:06:23.488Z,67.30
2018-10-01T02:06:56.533Z,66.50
2018-10-01T02:07:29.563Z,67.60
2018-10-01T02:08:02.597Z,67.50
2018-10-01T02:08:36.400Z,68.00
2018-10-01T02:09:09.445Z,68.00
2018-10-01T02:09:42.508Z,67.80
2018-10-01T02:10:15.544Z,67.50
2018-10-01T02:10:48.579Z,67.80
2018-10-01T02:11:21.707Z,67.60
2018-10-01T02:11:54.747Z,67.80
2018-10-01T02:12:28.560Z,68.00
2018-10-01T02:13:01.580Z,67.90
2018-10-01T02:13:34.633Z,68.20
2018-10-01T02:14:07.695Z,68.10
2018-10-01T02:14:40.760Z,67.90
2018-10-01T02:15:13.970Z,68.10
2018-10-01T02:15:47.034Z,68.10
2018-10-01T02:16:20.060Z,68.20
2018-10-01T02:16:53.868Z,68.20
2018-10-01T02:17:26.929Z,68.30
2018-10-01T02:17:59.973Z,68.10
2018-10-01T02:18:33.005Z,68.40
2018-10-01T02:19:06.051Z,68.50
2018-10-01T02:19:39.105Z,68.60
2018-10-01T02:20:12.161Z,68.40
2018-10-01T02:20:45.340Z,68.70
2018-10-01T02:21:18.347Z,68.60
2018-10-01T02:21:51.388Z,68.70
2018-10-01T02:22:24.441Z,68.80
2018-10-01T02:22:57.483Z,69.20
2018-10-01T02:23:30.531Z,69.10
2018-10-01T02:24:03.601Z,69.10
2018-10-01T02:24:36.645Z,69.00
2018-10-01T02:25:09.706Z,68.90
2018-10-01T02:25:42.741Z,69.20
2018-10-01T02:26:15.784Z,69.40
2018-10-01T02:26:49.591Z,69.50
2018-10-01T02:27:22.941Z,69.50
2018-10-01T02:27:55.977Z,69.40
2018-10-01T02:28:29.768Z,69.20
2018-10-01T02:29:03.579Z,69.00
2018-10-01T02:29:36.618Z,69.00
2018-10-01T02:30:09.697Z,69.00
2018-10-01T02:30:42.724Z,69.30
2018-10-01T02:31:15.774Z,69.50
2018-10-01T02:31:49.033Z,69.20
2018-10-01T02:32:22.835Z,69.20
2018-10-01T02:32:56.636Z,69.20
2018-10-01T02:33:29.668Z,69.20
2018-10-01T02:34:02.714Z,69.30
2018-10-01T02:34:35.739Z,69.50
2018-10-01T02:35:09.593Z,69.50
2018-10-01T02:35:42.660Z,70.30
2018-10-01T02:36:15.712Z,69.70
2018-10-01T02:36:48.761Z,69.50
2018-10-01T02:37:21.787Z,69.50
2018-10-01T02:37:54.828Z,69.70
2018-10-01T02:38:27.866Z,69.70
2018-10-01T02:39:00.914Z,69.80
2018-10-01T02:39:34.694Z,69.80
2018-10-01T02:40:07.750Z,69.80
2018-10-01T02:40:40.789Z,69.50
2018-10-01T02:41:13.849Z,69.70
2018-10-01T02:41:46.902Z,69.80
2018-10-01T02:42:19.936Z,70.00
2018-10-01T02:42:52.967Z,69.90
2018-10-01T02:43:26.017Z,69.80
2018-10-01T02:43:59.067Z,70.10
2018-10-01T02:44:32.115Z,70.30
2018-10-01T02:45:05.168Z,70.20
2018-10-01T02:45:38.220Z,69.90
2018-10-01T02:46:11.285Z,69.90
2018-10-01T02:46:44.350Z,70.00
2018-10-01T02:47:17.389Z,70.00
2018-10-01T02:47:50.552Z,70.20
2018-10-01T02:48:23.494Z,69.60
2018-10-01T02:48:56.533Z,70.30
2018-10-01T02:49:30.340Z,70.20
2018-10-01T02:50:03.404Z,70.20
2018-10-01T02:50:36.459Z,70.10
2018-10-01T02:51:10.256Z,70.30
2018-10-01T02:51:44.076Z,70.40
2018-10-01T02:52:17.096Z,70.40
2018-10-01T02:53:05.936Z,70.20
2018-10-01T02:54:37.921Z,70.70
2018-10-01T02:55:10.967Z,70.80
2018-10-01T02:55:44.021Z,70.70
2018-10-01T02:56:17.076Z,70.60
2018-10-01T02:56:50.121Z,70.80
2018-10-01T02:57:23.919Z,70.60
2018-10-01T02:57:56.967Z,70.50
2018-10-01T02:58:30.002Z,70.50
2018-10-01T02:59:03.046Z,70.80
2018-10-01T02:59:36.868Z,70.80
2018-10-01T03:00:09.911Z,70.80
2018-10-01T03:00:43.728Z,71.00
2018-10-01T03:01:16.786Z,71.00
2018-10-01T03:01:49.844Z,71.10
2018-10-01T03:02:23.668Z,71.40
2018-10-01T03:02:56.696Z,71.40
2018-10-01T03:03:29.748Z,71.40
2018-10-01T03:04:02.788Z,71.50
2018-10-01T03:04:35.833Z,71.40
2018-10-01T03:05:08.883Z,71.40
2018-10-01T03:05:41.936Z,71.40
2018-10-01T03:06:14.993Z,71.50
2018-10-01T03:06:48.027Z,71.60
2018-10-01T03:07:21.076Z,71.60
2018-10-01T03:07:54.111Z,72.40
2018-10-01T03:08:27.145Z,71.90
2018-10-01T03:09:00.188Z,71.80
2018-10-01T03:09:33.219Z,71.60
2018-10-01T03:10:07.041Z,71.90
2018-10-01T03:10:40.088Z,71.90
2018-10-01T03:11:13.880Z,71.70
2018-10-01T03:11:47.687Z,71.90
2018-10-01T03:12:20.744Z,71.80
2018-10-01T03:12:53.763Z,71.70
2018-10-01T03:13:26.796Z,72.00
2018-10-01T03:14:00.604Z,72.30
2018-10-01T03:14:33.632Z,72.10
2018-10-01T03:15:06.695Z,72.00
2018-10-01T03:15:39.736Z,72.30
2018-10-01T03:16:12.775Z,72.20
2018-10-01T03:16:46.593Z,72.60
2018-10-01T03:17:20.260Z,72.50
2018-10-01T03:17:54.082Z,74.00
2018-10-01T03:18:27.136Z,72.80
2018-10-01T03:19:00.932Z,72.70
2018-10-01T03:19:34.739Z,72.70
2018-10-01T03:20:07.789Z,72.90
2018-10-01T03:20:41.625Z,73.40
2018-10-01T03:21:14.684Z,73.20
2018-10-01T03:21:47.957Z,73.10
2018-10-01T03:22:20.996Z,73.30
2018-10-01T03:22:54.035Z,73.50
2018-10-01T03:23:27.068Z,73.70
2018-10-01T03:24:01.032Z,73.60
2018-10-01T03:24:34.052Z,73.70
2018-10-01T03:25:07.114Z,73.70
2018-10-01T03:25:40.953Z,73.20
2018-10-01T03:26:13.988Z,73.20
2018-10-01T03:26:47.789Z,74.50
2018-10-01T03:27:20.839Z,74.30
2018-10-01T03:27:53.876Z,74.20
2018-10-01T03:28:26.926Z,75.00
2018-10-01T03:28:59.952Z,73.90
2018-10-01T03:29:33.005Z,74.10
2018-10-01T03:30:06.041Z,74.30
2018-10-01T03:30:39.097Z,74.00
2018-10-01T03:31:12.909Z,74.50
2018-10-01T03:31:45.935Z,74.50
2018-10-01T03:32:18.979Z,74.90
2018-10-01T03:32:52.778Z,74.70
2018-10-01T03:33:25.819Z,74.70
2018-10-01T03:33:58.856Z,74.30
2018-10-01T03:34:31.886Z,74.20
2018-10-01T03:35:04.945Z,74.40
2018-10-01T03:35:38.008Z,74.20
2018-10-01T03:36:11.040Z,74.20
2018-10-01T03:36:44.079Z,74.50
2018-10-01T03:37:17.136Z,74.30
2018-10-01T03:37:50.202Z,74.60
2018-10-01T03:38:23.241Z,74.80
2018-10-01T03:38:56.286Z,74.70
2018-10-01T03:39:29.321Z,74.40
2018-10-01T03:40:02.495Z,74.40
2018-10-01T03:40:35.520Z,74.60
2018-10-01T03:41:08.558Z,74.70
2018-10-01T03:41:41.864Z,74.70
2018-10-01T03:42:14.925Z,74.90
2018-10-01T03:42:47.960Z,75.10
2018-10-01T03:43:20.999Z,75.00
2018-10-01T03:43:54.033Z,74.90
2018-10-01T03:44:27.845Z,74.90
2018-10-01T03:45:00.881Z,74.90
2018-10-01T03:45:33.912Z,74.60
2018-10-01T03:46:06.972Z,74.70
2018-10-01T03:46:39.996Z,74.60
2018-10-01T03:47:13.066Z,74.50
2018-10-01T03:47:46.089Z,74.50
2018-10-01T03:48:19.144Z,75.40
2018-10-01T03:48:52.941Z,76.60
2018-10-01T03:49:25.979Z,76.20
2018-10-01T03:49:59.026Z,75.70
2018-10-01T03:50:32.049Z,75.10
2018-10-01T03:51:06.088Z,74.90
2018-10-01T03:51:39.125Z,74.70
2018-10-01T03:52:12.936Z,75.20
2018-10-01T03:52:46.761Z,74.90
2018-10-01T03:53:19.788Z,74.90
2018-10-01T03:53:52.819Z,74.70
2018-10-01T03:54:25.858Z,75.20
2018-10-01T03:54:58.892Z,75.20
2018-10-01T03:55:31.930Z,76.30
2018-10-01T03:56:04.996Z,75.20
2018-10-01T03:56:38.190Z,75.30
2018-10-01T03:57:11.243Z,74.90
2018-10-01T03:57:44.292Z,74.80
2018-10-01T03:58:18.091Z,75.30
2018-10-01T03:58:51.905Z,74.90
2018-10-01T03:59:24.963Z,74.90
2018-10-01T03:59:58.009Z,75.40
2018-10-01T04:00:31.044Z,75.30
2018-10-01T04:01:04.105Z,75.10
2018-10-01T04:01:37.132Z,75.60
2018-10-01T04:02:10.168Z,75.20
2018-10-01T04:02:44.063Z,75.50
2018-10-01T04:03:17.865Z,76.20
2018-10-01T04:03:50.931Z,75.30
2018-10-01T04:04:23.968Z,75.00
2018-10-01T04:04:57.776Z,75.80
2018-10-01T04:05:30.818Z,75.90
2018-10-01T04:06:03.867Z,75.60
2018-10-01T04:06:37.037Z,75.90
2018-10-01T04:07:10.104Z,75.80
2018-10-01T04:07:43.156Z,76.00
2018-10-01T04:08:16.194Z,75.80
2018-10-01T04:08:49.291Z,75.70
2018-10-01T04:09:22.304Z,75.60
2018-10-01T04:09:55.358Z,75.90
2018-10-01T04:10:28.401Z,75.90
2018-10-01T04:11:02.240Z,76.10
2018-10-01T04:11:36.036Z,76.10
2018-10-01T04:12:09.095Z,76.10
2018-10-01T04:12:42.592Z,76.00
2018-10-01T04:13:15.672Z,75.80
2018-10-01T04:13:48.728Z,76.50
2018-10-01T04:14:21.824Z,76.80
2018-10-01T04:14:54.867Z,76.40
2018-10-01T04:15:27.914Z,76.00
2018-10-01T04:16:00.956Z,75.90
2018-10-01T04:16:34.008Z,75.90
2018-10-01T04:17:07.040Z,75.50
2018-10-01T04:17:40.088Z,75.80
2018-10-01T04:18:13.121Z,75.90
2018-10-01T04:18:46.165Z,76.10
2018-10-01T04:19:19.966Z,76.20
2018-10-01T04:19:53.771Z,75.80
2018-10-01T04:20:26.827Z,75.80
2018-10-01T04:20:59.971Z,75.60
2018-10-01T04:21:33.021Z,75.90
2018-10-01T04:22:06.100Z,75.90
2018-10-01T04:22:39.149Z,76.00
2018-10-01T04:23:12.947Z,76.10
2018-10-01T04:23:45.990Z,76.10
2018-10-01T04:24:19.041Z,75.90
2018-10-01T04:24:52.069Z,75.80
2018-10-01T04:25:25.370Z,76.00
2018-10-01T04:25:58.645Z,76.00
2018-10-01T04:26:31.688Z,75.70
2018-10-01T04:27:05.511Z,76.00
2018-10-01T04:27:38.623Z,75.80
2018-10-01T04:28:11.710Z,75.60
2018-10-01T04:28:44.719Z,76.00
2018-10-01T04:29:17.758Z,76.10
2018-10-01T04:29:51.097Z,76.10
2018-10-01T04:30:24.143Z,75.90
2018-10-01T04:30:57.951Z,76.20
2018-10-01T04:31:31.010Z,76.20
2018-10-01T04:32:04.817Z,76.30
2018-10-01T04:32:37.869Z,76.30
2018-10-01T04:33:10.889Z,76.00
2018-10-01T04:33:43.931Z,76.20
2018-10-01T04:34:16.983Z,76.20
2018-10-01T04:34:50.796Z,76.70
2018-10-01T04:35:24.604Z,76.30
2018-10-01T04:35:57.678Z,76.30
2018-10-01T04:36:30.738Z,76.20
2018-10-01T04:37:04.543Z,76.00
2018-10-01T04:37:37.576Z,76.00
2018-10-01T04:38:10.613Z,76.20
2018-10-01T04:38:43.653Z,76.30
2018-10-01T04:39:17.452Z,76.10
2018-10-01T04:39:50.482Z,76.10
2018-10-01T04:40:23.543Z,76.20
2018-10-01T04:40:56.577Z,76.10
2018-10-01T04:41:29.627Z,76.30
2018-10-01T04:42:03.456Z,76.60
2018-10-01T04:42:36.500Z,76.40
2018-10-01T04:43:10.303Z,76.50
2018-10-01T04:43:43.345Z,76.50
2018-10-01T04:44:16.380Z,76.50
2018-10-01T04:44:49.416Z,76.60
2018-10-01T04:45:23.229Z,77.00
2018-10-01T04:45:56.272Z,76.20
2018-10-01T04:46:29.332Z,76.10
2018-10-01T04:47:03.142Z,76.60
2018-10-01T04:47:36.209Z,76.60
2018-10-01T04:48:09.390Z,76.30
2018-10-01T04:48:42.415Z,76.80
2018-10-01T04:49:15.494Z,78.20
2018-10-01T04:49:48.526Z,77.20
2018-10-01T04:50:21.566Z,76.90
2018-10-01T04:50:54.621Z,76.90
2018-10-01T04:51:27.661Z,77.00
2018-10-01T04:52:00.716Z,76.60
2018-10-01T04:52:33.751Z,76.90
2018-10-01T04:53:06.783Z,76.90
2018-10-01T04:53:40.591Z,76.80
2018-10-01T04:54:13.624Z,76.80
2018-10-01T04:54:46.677Z,76.90
2018-10-01T04:55:19.736Z,77.00
2018-10-01T04:55:52.796Z,78.00
2018-10-01T04:56:25.865Z,77.60
2018-10-01T04:56:58.896Z,77.60
2018-10-01T04:57:31.944Z,77.60
2018-10-01T04:58:05.060Z,77.80
2018-10-01T04:58:38.148Z,77.70
2018-10-01T04:59:11.851Z,77.30
2018-10-01T04:59:45.671Z,77.40
2018-10-01T05:00:18.708Z,77.40
2018-10-01T05:00:52.510Z,77.50
2018-10-01T05:01:25.590Z,77.50
2018-10-01T05:01:59.363Z,77.30
2018-10-01T05:02:33.172Z,77.10
2018-10-01T05:03:06.200Z,77.10
2018-10-01T05:03:39.251Z,77.30
2018-10-01T05:04:12.292Z,77.70
2018-10-01T05:04:45.336Z,77.20
2018-10-01T05:05:18.474Z,77.60
2018-10-01T05:05:51.507Z,77.50
2018-10-01T05:06:25.352Z,77.40
2018-10-01T05:06:58.411Z,77.40
2018-10-01T05:07:31.445Z,77.30
2018-10-01T05:08:04.479Z,77.50
2018-10-01T05:08:37.520Z,77.90
2018-10-01T05:09:10.586Z,77.60
2018-10-01T05:09:43.627Z,77.40
2018-10-01T05:10:16.661Z,77.20
2018-10-01T05:10:49.703Z,79.20
2018-10-01T05:11:22.739Z,78.40
2018-10-01T05:11:55.796Z,79.20
2018-10-01T05:12:28.833Z,77.90
2018-10-01T05:13:02.640Z,77.50
2018-10-01T05:13:35.685Z,77.50
2018-10-01T05:14:09.500Z,77.70
2018-10-01T05:14:42.591Z,77.70
2018-10-01T05:15:15.580Z,77.70
2018-10-01T05:15:48.616Z,78.20
2018-10-01T05:16:22.408Z,78.50
2018-10-01T05:16:55.480Z,78.50
2018-10-01T05:17:29.299Z,77.80
2018-10-01T05:18:02.340Z,77.80
2018-10-01T05:18:36.130Z,78.30
2018-10-01T05:19:09.935Z,78.50
2018-10-01T05:19:42.976Z,78.50
2018-10-01T05:20:16.022Z,78.00
2018-10-01T05:20:49.063Z,78.00
2018-10-01T05:21:22.112Z,78.80
2018-10-01T05:21:55.180Z,77.50
2018-10-01T05:22:28.209Z,77.50
2018-10-01T05:23:01.249Z,77.60
2018-10-01T05:23:34.299Z,77.50
2018-10-01T05:24:07.343Z,77.70
2018-10-01T05:24:40.527Z,77.50
2018-10-01T05:25:13.578Z,77.40
2018-10-01T05:25:46.867Z,77.50
2018-10-01T05:26:19.911Z,77.70
2018-10-01T05:26:53.762Z,77.60
2018-10-01T05:27:26.805Z,77.60
2018-10-01T05:27:59.864Z,77.50
2018-10-01T05:28:32.899Z,77.50
2018-10-01T05:29:05.956Z,77.50
2018-10-01T05:29:39.008Z,78.40
2018-10-01T05:30:12.087Z,77.50
2018-10-01T05:30:45.147Z,77.50
2018-10-01T05:31:18.185Z,77.70
2018-10-01T05:31:51.230Z,77.80
2018-10-01T05:32:24.292Z,77.70
2018-10-01T05:32:57.329Z,77.50
2018-10-01T05:33:31.128Z,77.60
2018-10-01T05:34:04.423Z,77.60
2018-10-01T05:34:37.486Z,77.50
2018-10-01T05:35:10.535Z,77.70
2018-10-01T05:35:44.352Z,77.80
2018-10-01T05:36:18.180Z,77.70
2018-10-01T05:36:51.275Z,77.70
2018-10-01T05:37:24.337Z,77.60
2018-10-01T05:37:57.450Z,77.30
2018-10-01T05:38:31.200Z,77.40
2018-10-01T05:39:04.251Z,77.40
2018-10-01T05:39:37.295Z,77.70
2018-10-01T05:40:11.103Z,78.20
2018-10-01T05:40:44.132Z,78.20
2018-10-01T05:41:17.196Z,77.80
2018-10-01T05:41:50.348Z,77.60
2018-10-01T05:42:23.379Z,77.60
2018-10-01T05:42:56.411Z,77.60
2018-10-01T05:43:29.454Z,77.50
2018-10-01T05:44:03.248Z,77.70
2018-10-01T05:44:36.286Z,77.70
2018-10-01T05:45:09.336Z,77.80
2018-10-01T05:45:42.376Z,78.20
2018-10-01T05:46:15.416Z,78.10
2018-10-01T05:46:48.460Z,78.10
2018-10-01T05:47:21.639Z,78.80
2018-10-01T05:47:54.712Z,78.10
2018-10-01T05:48:27.764Z,77.90
2018-10-01T05:49:00.859Z,78.00
2018-10-01T05:49:33.877Z,78.10
2018-10-01T05:50:07.699Z,78.40
2018-10-01T05:50:40.761Z,78.40
2018-10-01T05:51:13.816Z,78.20
2018-10-01T05:51:47.242Z,78.30
2018-10-01T05:52:20.294Z,78.40
2018-10-01T05:52:53.331Z,78.30
2018-10-01T05:53:26.381Z,78.20
2018-10-01T05:53:59.431Z,78.30
2018-10-01T05:54:32.452Z,78.10
2018-10-01T05:55:05.508Z,78.10
2018-10-01T05:55:38.563Z,78.10
2018-10-01T05:56:11.614Z,78.60
2018-10-01T05:56:45.417Z,78.60
2018-10-01T05:57:18.470Z,78.40
2018-10-01T05:57:52.296Z,79.00
2018-10-01T05:58:25.340Z,78.90
2018-10-01T05:58:59.136Z,78.90
2018-10-01T05:59:32.937Z,78.70
2018-10-01T06:00:06.748Z,79.00
2018-10-01T06:00:39.808Z,78.90
2018-10-01T06:01:12.844Z,78.80
2018-10-01T06:01:45.905Z,78.90
2018-10-01T06:02:18.964Z,79.30
2018-10-01T06:02:52.013Z,78.80
2018-10-01T06:03:25.056Z,78.90
2018-10-01T06:03:58.097Z,78.80
2018-10-01T06:04:31.170Z,79.00
2018-10-01T06:05:04.223Z,78.80
2018-10-01T06:05:37.256Z,78.60
2018-10-01T06:06:10.317Z,78.60
2018-10-01T06:06:43.384Z,78.80
2018-10-01T06:07:16.437Z,79.70
2018-10-01T06:07:49.473Z,80.00
2018-10-01T06:08:22.507Z,79.20
2018-10-01T06:08:56.327Z,78.40
2018-10-01T06:09:29.385Z,79.10
2018-10-01T06:10:02.439Z,79.10
2018-10-01T06:10:35.480Z,79.20
2018-10-01T06:11:08.520Z,79.90
2018-10-01T06:11:41.572Z,79.50
2018-10-01T06:12:15.410Z,79.20
2018-10-01T06:12:49.215Z,79.50
2018-10-01T06:13:22.428Z,79.50
2018-10-01T06:13:55.589Z,79.30
2018-10-01T06:14:28.631Z,79.20
2018-10-01T06:15:01.677Z,79.10
2018-10-01T06:15:34.715Z,78.90
2018-10-01T06:16:07.764Z,79.30
2018-10-01T06:16:40.816Z,79.30
2018-10-01T06:17:13.868Z,79.60
2018-10-01T06:17:46.920Z,79.30
2018-10-01T06:18:19.969Z,79.30
2018-10-01T06:18:53.768Z,79.80
2018-10-01T06:19:26.837Z,79.70
2018-10-01T06:19:59.949Z,79.40
2018-10-01T06:20:33.029Z,79.30
2018-10-01T06:21:06.060Z,79.30
2018-10-01T06:21:39.099Z,79.20
2018-10-01T06:22:12.140Z,79.20
2018-10-01T06:22:45.239Z,79.30
2018-10-01T06:23:18.404Z,79.20
2018-10-01T06:23:51.487Z,79.10
2018-10-01T06:24:24.523Z,79.40
2018-10-01T06:24:57.573Z,79.50
2018-10-01T06:25:30.606Z,79.30
2018-10-01T06:26:04.420Z,79.20
2018-10-01T06:26:37.477Z,79.20
2018-10-01T06:27:10.511Z,79.20
2018-10-01T06:27:43.555Z,79.10
2018-10-01T06:28:17.399Z,79.20
2018-10-01T06:28:50.449Z,79.20
2018-10-01T06:29:23.487Z,79.50
2018-10-01T06:29:56.525Z,79.50
2018-10-01T06:30:29.688Z,79.80
2018-10-01T06:31:02.728Z,79.80
2018-10-01T06:31:35.777Z,79.50
2018-10-01T06:32:08.825Z,79.50
2018-10-01T06:32:41.872Z,79.50
2018-10-01T06:33:15.138Z,79.60
2018-10-01T06:33:48.170Z,79.30
2018-10-01T06:34:21.236Z,79.20
2018-10-01T06:34:54.280Z,79.60
2018-10-01T06:35:27.339Z,79.80
2018-10-01T06:36:00.379Z,79.80
2018-10-01T06:36:34.192Z,79.80
2018-10-01T06:37:08.010Z,79.60
2018-10-01T06:37:41.059Z,79.60
2018-10-01T06:38:14.885Z,80.00
2018-10-01T06:38:47.929Z,79.90
2018-10-01T06:39:21.736Z,79.70
2018-10-01T06:39:55.523Z,79.50
2018-10-01T06:40:29.365Z,79.60
2018-10-01T06:41:02.392Z,79.60
2018-10-01T06:41:35.481Z,79.90
2018-10-01T06:42:08.576Z,80.00
2018-10-01T06:42:41.800Z,80.10
2018-10-01T06:43:14.820Z,79.60
2018-10-01T06:43:47.865Z,79.50
2018-10-01T06:44:20.911Z,79.50
2018-10-01T06:44:53.947Z,79.10
2018-10-01T06:45:26.999Z,79.30
2018-10-01T06:46:00.064Z,79.80
2018-10-01T06:46:33.104Z,79.60
2018-10-01T06:47:06.161Z,79.60
2018-10-01T06:47:39.239Z,79.60
2018-10-01T06:48:12.286Z,79.40
2018-10-01T06:48:45.340Z,79.40
2018-10-01T06:49:19.146Z,79.40
2018-10-01T06:49:52.189Z,79.40
2018-10-01T06:50:25.221Z,80.20
2018-10-01T06:50:59.038Z,80.10
2018-10-01T06:51:32.073Z,80.20
2018-10-01T06:52:05.122Z,79.80
2018-10-01T06:52:38.951Z,80.20
2018-10-01T06:53:11.984Z,80.10
2018-10-01T06:53:45.037Z,79.90
2018-10-01T06:54:18.064Z,79.60
2018-10-01T06:54:51.106Z,79.30
2018-10-01T06:55:24.159Z,79.40
2018-10-01T06:55:57.196Z,79.30
2018-10-01T06:56:30.239Z,79.20
2018-10-01T06:57:04.064Z,79.40
2018-10-01T06:57:37.120Z,79.40
2018-10-01T06:58:10.180Z,79.40
2018-10-01T06:58:43.214Z,79.20
2018-10-01T06:59:16.269Z,79.60
2018-10-01T06:59:49.311Z,80.00
2018-10-01T07:00:23.130Z,79.20
2018-10-01T07:00:56.159Z,79.10
2018-10-01T07:01:29.212Z,79.30
2018-10-01T07:02:03.016Z,79.20
2018-10-01T07:02:36.085Z,79.20
2018-10-01T07:03:09.129Z,79.40
2018-10-01T07:03:42.160Z,79.90
2018-10-01T07:04:15.971Z,79.30
2018-10-01T07:04:49.026Z,79.30
2018-10-01T07:05:22.099Z,79.30
2018-10-01T07:05:55.267Z,79.10
2018-10-01T07:06:28.168Z,79.20
2018-10-01T07:07:01.213Z,79.10
2018-10-01T07:07:34.256Z,79.20
2018-10-01T07:08:07.317Z,79.80
2018-10-01T07:08:40.389Z,79.50
2018-10-01T07:09:13.444Z,79.40